Time;durP1;ratioP1;P1;durP2;ratioP2;P2;SDS_P1;SDS_P2;PMS_P1;PMS_P2;Temp;Humidity;BMP_temperature;BMP_pressure;BME280_temperature;BME280_humidity;BME280_pressure;Samples;Min_cycle;Max_cycle;Signal;HPM_P1;HPM_P2
2022/10/08 00:01:24;;;;;;;18.27;3.50;;;13.40;99.90;;;;;;5064582;28;20095;-50
2022/10/08 00:03:51;;;;;;;17.02;3.65;;;13.40;99.90;;;;;;5074052;28;20052;-49
2022/10/08 00:06:19;;;;;;;15.55;4.07;;;13.40;99.90;;;;;;5057183;28;20094;-47
2022/10/08 00:08:49;;;;;;;12.68;3.95;;;13.40;99.90;;;;;;5054530;28;20048;-48
2022/10/08 00:11:17;;;;;;;16.15;3.40;;;13.40;99.90;;;;;;5062347;28;20084;-43
2022/10/08 00:13:46;;;;;;;13.15;3.08;;;13.40;99.90;;;;;;5066080;28;20048;-46
2022/10/08 00:16:14;;;;;;;9.95;3.05;;;13.40;99.90;;;;;;5066970;28;20041;-45
2022/10/08 00:18:41;;;;;;;15.13;3.10;;;13.40;99.90;;;;;;5066751;28;20098;-47
2022/10/08 00:21:08;;;;;;;16.05;2.90;;;13.40;99.90;;;;;;5056427;28;20049;-47
2022/10/08 00:23:35;;;;;;;18.38;3.13;;;13.40;99.90;;;;;;5069461;28;20546;-49
2022/10/08 00:26:06;;;;;;;17.10;3.47;;;13.40;99.90;;;;;;5073973;28;20084;-46
2022/10/08 00:28:33;;;;;;;17.42;3.30;;;13.40;99.90;;;;;;5064647;28;20083;-46
2022/10/08 00:31:05;;;;;;;12.90;2.88;;;13.40;99.90;;;;;;5047085;28;20094;-42
2022/10/08 00:33:33;;;;;;;14.45;2.92;;;13.40;99.90;;;;;;5068190;28;20082;-46
2022/10/08 00:36:01;;;;;;;15.90;2.80;;;13.40;99.90;;;;;;5069744;28;20048;-47
2022/10/08 00:38:28;;;;;;;16.40;3.20;;;13.30;99.90;;;;;;5068352;28;20058;-49
2022/10/08 00:40:54;;;;;;;12.23;2.42;;;13.30;99.90;;;;;;5068662;28;20045;-49
2022/10/08 00:43:39;;;;;;;10.98;2.80;;;13.20;99.90;;;;;;5062088;28;20041;-44
2022/10/08 00:46:06;;;;;;;17.38;3.20;;;13.20;99.90;;;;;;5046983;28;20044;-49
2022/10/08 00:48:34;;;;;;;10.60;2.88;;;13.20;99.90;;;;;;5043937;28;20135;-49
2022/10/08 00:51:01;;;;;;;14.88;2.95;;;13.10;99.90;;;;;;5068033;28;20048;-49
2022/10/08 00:53:29;;;;;;;13.65;3.10;;;13.20;99.90;;;;;;5066636;28;20056;-47
2022/10/08 00:55:55;;;;;;;12.73;2.63;;;13.10;99.90;;;;;;5062708;28;20051;-41
2022/10/08 00:58:22;;;;;;;13.25;2.75;;;13.10;99.90;;;;;;5065055;28;20068;-49
2022/10/08 01:00:50;;;;;;;7.57;2.20;;;13.10;99.90;;;;;;5046052;28;20505;-44
2022/10/08 01:03:17;;;;;;;13.52;2.45;;;13.10;99.90;;;;;;5050792;28;20072;-44
2022/10/08 01:05:46;;;;;;;12.48;2.75;;;13.10;99.90;;;;;;5063215;28;20076;-39
2022/10/08 01:08:16;;;;;;;13.45;3.38;;;13.00;99.90;;;;;;5067493;28;20044;-49
2022/10/08 01:10:47;;;;;;;17.25;3.85;;;13.00;99.90;;;;;;5065743;28;20076;-49
2022/10/08 01:13:19;;;;;;;13.65;3.08;;;13.00;99.90;;;;;;5055184;28;20472;-45
2022/10/08 01:15:51;;;;;;;12.95;2.92;;;13.00;99.90;;;;;;5069568;28;20109;-46
2022/10/08 01:18:20;;;;;;;8.70;2.50;;;13.00;99.90;;;;;;5069488;28;20106;-48
2022/10/08 01:20:52;;;;;;;12.02;3.20;;;13.00;99.90;;;;;;5066485;28;20055;-47
2022/10/08 01:23:28;;;;;;;12.00;3.72;;;13.00;99.90;;;;;;5047285;28;20079;-44
2022/10/08 01:25:56;;;;;;;12.00;2.70;;;12.90;99.90;;;;;;5064544;28;20079;-41
2022/10/08 01:28:27;;;;;;;10.95;3.60;;;12.90;99.90;;;;;;5069606;28;20048;-47
2022/10/08 01:30:55;;;;;;;11.18;3.10;;;12.90;99.90;;;;;;5045546;28;20130;-50
2022/10/08 01:33:26;;;;;;;17.75;4.03;;;13.00;99.90;;;;;;5066975;28;20068;-47
2022/10/08 01:35:56;;;;;;;14.13;3.10;;;12.90;99.90;;;;;;5041326;28;20143;-48
2022/10/08 01:38:23;;;;;;;11.15;3.05;;;13.00;99.90;;;;;;5047726;28;20060;-46
2022/10/08 01:40:50;;;;;;;13.65;3.60;;;13.00;99.90;;;;;;5066590;28;20061;-46
2022/10/08 01:43:18;;;;;;;12.15;3.13;;;13.00;99.90;;;;;;5072208;28;20524;-47
2022/10/08 01:45:49;;;;;;;13.07;3.17;;;13.00;99.90;;;;;;5073310;28;20098;-49
2022/10/08 01:48:18;;;;;;;10.27;3.28;;;12.90;99.90;;;;;;5069093;28;20147;-42
2022/10/08 01:50:50;;;;;;;10.80;2.90;;;12.90;99.90;;;;;;5063013;28;20044;-46
2022/10/08 01:53:17;;;;;;;9.65;2.72;;;12.90;99.90;;;;;;5044537;28;20059;-44
2022/10/08 01:55:45;;;;;;;12.50;2.75;;;12.90;99.90;;;;;;5065177;28;20049;-46
2022/10/08 01:58:14;;;;;;;12.95;3.58;;;12.90;99.90;;;;;;5065460;28;20072;-47
2022/10/08 02:00:40;;;;;;;14.77;3.25;;;12.90;99.90;;;;;;5067178;28;20052;-44
2022/10/08 02:03:10;;;;;;;12.80;3.63;;;12.90;99.90;;;;;;5065394;28;20044;-45
2022/10/08 02:05:37;;;;;;;12.07;3.92;;;12.90;99.90;;;;;;5048957;28;20045;-50
2022/10/08 02:08:04;;;;;;;16.23;3.60;;;12.90;99.90;;;;;;5047578;28;20140;-49
2022/10/08 02:10:31;;;;;;;12.85;3.78;;;12.90;99.90;;;;;;5066402;28;20061;-49
2022/10/08 02:12:58;;;;;;;10.27;3.13;;;12.90;99.90;;;;;;5070429;28;20430;-49
2022/10/08 02:15:38;;;;;;;11.23;3.10;;;12.90;99.90;;;;;;5050628;28;20461;-48
2022/10/08 02:18:10;;;;;;;8.77;3.17;;;12.90;99.90;;;;;;5063773;28;20076;-47
2022/10/08 02:20:39;;;;;;;11.68;3.05;;;12.90;99.90;;;;;;5047656;28;20122;-50
2022/10/08 02:23:09;;;;;;;10.15;3.72;;;12.90;99.90;;;;;;5045765;28;20151;-48
2022/10/08 02:25:37;;;;;;;10.00;3.30;;;12.80;99.90;;;;;;5046829;28;20459;-48
2022/10/08 02:28:07;;;;;;;6.85;2.50;;;12.90;99.90;;;;;;5064181;28;20076;-47
2022/10/08 02:30:38;;;;;;;7.13;2.67;;;12.90;99.90;;;;;;5071107;28;20084;-48
2022/10/08 02:33:05;;;;;;;8.98;2.88;;;12.90;99.90;;;;;;5064297;28;20094;-49
2022/10/08 02:35:35;;;;;;;15.10;3.17;;;12.90;99.90;;;;;;5063791;28;20149;-46
2022/10/08 02:38:06;;;;;;;8.48;2.53;;;12.90;99.90;;;;;;5058493;28;20088;-46
2022/10/08 02:40:33;;;;;;;9.18;2.88;;;12.90;99.90;;;;;;5058762;28;20051;-47
2022/10/08 02:43:01;;;;;;;12.07;2.97;;;12.90;99.90;;;;;;5043429;28;20136;-49
2022/10/08 02:45:29;;;;;;;9.95;2.85;;;12.90;99.90;;;;;;5064269;28;20560;-49
2022/10/08 02:47:59;;;;;;;8.35;2.60;;;12.80;99.90;;;;;;5064526;28;20075;-48
2022/10/08 02:50:25;;;;;;;11.68;2.75;;;12.80;99.90;;;;;;5056870;28;20078;-47
2022/10/08 02:52:52;;;;;;;6.50;2.42;;;12.80;99.90;;;;;;5043537;28;20480;-49
2022/10/08 02:55:25;;;;;;;12.38;2.72;;;12.80;99.90;;;;;;5065205;28;20530;-47
2022/10/08 02:57:55;;;;;;;6.85;1.98;;;12.70;99.90;;;;;;5057853;28;20176;-49
2022/10/08 03:00:22;;;;;;;8.57;2.05;;;12.70;99.90;;;;;;5055746;28;20078;-49
2022/10/08 03:02:52;;;;;;;10.07;2.65;;;12.70;99.90;;;;;;5069464;28;20095;-47
2022/10/08 03:05:19;;;;;;;8.85;2.75;;;12.60;99.90;;;;;;5053421;28;20101;-45
2022/10/08 03:07:45;;;;;;;8.48;2.60;;;12.60;99.90;;;;;;5069812;28;20573;-47
2022/10/08 03:10:12;;;;;;;5.47;2.00;;;12.50;99.90;;;;;;5068205;28;20080;-42
2022/10/08 03:12:40;;;;;;;9.50;2.17;;;12.50;99.90;;;;;;5071372;28;20092;-46
2022/10/08 03:15:10;;;;;;;8.68;2.38;;;12.50;99.90;;;;;;5068626;28;20563;-42
2022/10/08 03:17:38;;;;;;;5.50;1.98;;;12.50;99.90;;;;;;5071794;28;20048;-49
2022/10/08 03:20:06;;;;;;;9.95;2.47;;;12.40;99.90;;;;;;5039632;28;20143;-42
2022/10/08 03:22:33;;;;;;;12.20;2.50;;;12.30;99.90;;;;;;5052249;28;20041;-45
2022/10/08 03:25:00;;;;;;;6.45;2.10;;;12.30;99.90;;;;;;5044379;28;20507;-48
2022/10/08 03:27:27;;;;;;;9.05;2.25;;;12.30;99.90;;;;;;5071312;28;20098;-50
2022/10/08 03:29:56;;;;;;;5.70;1.70;;;12.20;99.90;;;;;;5070774;28;20136;-48
2022/10/08 03:32:23;;;;;;;7.68;2.03;;;12.20;99.90;;;;;;5061151;28;20373;-48
2022/10/08 03:34:50;;;;;;;8.90;1.88;;;12.20;99.90;;;;;;5059905;28;20076;-49
2022/10/08 03:37:17;;;;;;;8.13;2.03;;;12.10;99.90;;;;;;5063379;28;21321;-42
2022/10/08 03:39:43;;;;;;;7.50;2.42;;;12.10;99.90;;;;;;5068856;28;20079;-43
2022/10/08 03:42:10;;;;;;;5.90;1.77;;;12.10;99.90;;;;;;5064880;28;20069;-46
2022/10/08 03:44:37;;;;;;;8.02;2.25;;;12.10;99.90;;;;;;5068514;28;20084;-47
2022/10/08 03:47:05;;;;;;;6.28;2.60;;;12.00;99.90;;;;;;5064397;28;20102;-41
2022/10/08 03:49:32;;;;;;;5.60;1.80;;;12.00;99.90;;;;;;5047555;28;20503;-46
2022/10/08 03:51:58;;;;;;;9.60;2.53;;;12.00;99.90;;;;;;5061336;28;20079;-44
2022/10/08 03:54:25;;;;;;;13.43;2.50;;;12.00;99.90;;;;;;5065959;28;20129;-48
2022/10/08 03:56:52;;;;;;;10.02;2.85;;;12.00;99.90;;;;;;5050797;28;20087;-48
2022/10/08 03:59:19;;;;;;;6.22;2.38;;;11.90;99.90;;;;;;5070211;28;20136;-46
2022/10/08 04:01:46;;;;;;;9.88;2.55;;;11.90;99.90;;;;;;5069421;28;20137;-49
2022/10/08 04:04:14;;;;;;;7.80;2.15;;;11.90;99.90;;;;;;5052265;28;20139;-47
2022/10/08 04:06:40;;;;;;;8.82;2.38;;;11.90;99.90;;;;;;5060660;28;20508;-45
2022/10/08 04:09:08;;;;;;;7.40;2.47;;;11.90;99.90;;;;;;5070187;28;20087;-47
2022/10/08 04:11:35;;;;;;;12.73;2.42;;;11.90;99.90;;;;;;5064774;28;20128;-48
2022/10/08 04:14:02;;;;;;;11.13;2.60;;;11.90;99.90;;;;;;5056352;28;20143;-49
2022/10/08 04:16:29;;;;;;;10.52;2.60;;;11.90;99.90;;;;;;5068119;28;20140;-48
2022/10/08 04:18:55;;;;;;;12.20;2.47;;;12.00;99.90;;;;;;5069773;28;20094;-50
2022/10/08 04:21:23;;;;;;;8.43;2.40;;;11.90;99.90;;;;;;5074263;28;20131;-47
2022/10/08 04:23:50;;;;;;;12.82;2.88;;;11.90;99.90;;;;;;5074362;28;20091;-48
2022/10/08 04:26:17;;;;;;;6.15;2.25;;;11.90;99.90;;;;;;5071481;28;20147;-47
2022/10/08 04:28:44;;;;;;;8.05;2.95;;;11.90;99.90;;;;;;5064905;28;20083;-45
2022/10/08 04:31:12;;;;;;;12.52;2.55;;;11.90;99.90;;;;;;5063870;28;20048;-42
2022/10/08 04:33:39;;;;;;;14.20;3.33;;;11.90;99.90;;;;;;5065321;28;20131;-40
2022/10/08 04:36:07;;;;;;;11.80;2.58;;;12.00;99.90;;;;;;5047433;28;20080;-44
2022/10/08 04:38:35;;;;;;;12.68;3.03;;;12.00;99.90;;;;;;5064811;28;20459;-47
2022/10/08 04:41:03;;;;;;;6.72;2.25;;;12.00;99.90;;;;;;5069165;28;20143;-46
2022/10/08 04:43:30;;;;;;;13.73;3.38;;;12.00;99.90;;;;;;5065170;28;20067;-47
2022/10/08 04:45:57;;;;;;;11.02;2.80;;;12.00;99.90;;;;;;5049620;28;20052;-49
2022/10/08 04:48:24;;;;;;;7.53;2.30;;;12.00;99.90;;;;;;5066278;28;20131;-46
2022/10/08 04:50:55;;;;;;;11.98;2.80;;;12.00;99.90;;;;;;5069427;28;20075;-47
2022/10/08 04:53:21;;;;;;;12.15;2.90;;;12.00;99.90;;;;;;5068894;28;20044;-46
2022/10/08 04:55:49;;;;;;;14.45;2.90;;;12.00;99.90;;;;;;5068412;28;20488;-47
2022/10/08 04:58:16;;;;;;;11.98;2.60;;;12.00;99.90;;;;;;5064300;28;20675;-42
2022/10/08 05:00:43;;;;;;;8.70;2.28;;;12.10;99.90;;;;;;5069392;28;20048;-49
2022/10/08 05:03:10;;;;;;;14.50;2.60;;;12.00;99.90;;;;;;5064969;28;20475;-50
2022/10/08 05:05:39;;;;;;;12.93;2.95;;;12.10;99.90;;;;;;5067044;28;20127;-51
2022/10/08 05:08:06;;;;;;;15.18;3.08;;;12.10;99.90;;;;;;5044965;28;20135;-49
2022/10/08 05:10:33;;;;;;;12.07;2.53;;;12.10;99.90;;;;;;5045721;28;20443;-50
2022/10/08 05:13:01;;;;;;;14.85;2.70;;;12.00;99.90;;;;;;5063833;28;20127;-47
2022/10/08 05:15:28;;;;;;;9.52;2.85;;;12.00;99.90;;;;;;5056293;28;20493;-46
2022/10/08 05:17:54;;;;;;;13.02;2.80;;;12.00;99.90;;;;;;5054585;28;20052;-48
2022/10/08 05:20:21;;;;;;;11.00;2.75;;;12.00;99.90;;;;;;5068729;28;20452;-47
2022/10/08 05:22:48;;;;;;;14.00;3.00;;;12.00;99.90;;;;;;5054360;28;20542;-49
2022/10/08 05:25:15;;;;;;;10.75;2.67;;;11.90;99.90;;;;;;5050703;28;20052;-49
2022/10/08 05:27:42;;;;;;;10.73;2.70;;;11.90;99.90;;;;;;5052755;28;20463;-43
2022/10/08 05:30:11;;;;;;;15.57;3.40;;;11.90;99.90;;;;;;5071106;28;20148;-47
2022/10/08 05:32:38;;;;;;;11.18;2.47;;;11.90;99.90;;;;;;5069609;28;20115;-48
2022/10/08 05:35:05;;;;;;;10.02;2.50;;;11.80;99.90;;;;;;5068575;28;20127;-44
2022/10/08 05:37:32;;;;;;;11.45;2.42;;;11.80;99.90;;;;;;5053550;28;20396;-48
2022/10/08 05:39:59;;;;;;;11.55;2.08;;;11.80;99.90;;;;;;5038235;28;20053;-48
2022/10/08 05:42:26;;;;;;;12.65;2.53;;;11.70;99.90;;;;;;5060063;28;20076;-48
2022/10/08 05:44:53;;;;;;;9.90;2.28;;;11.70;99.90;;;;;;5066907;28;20141;-49
2022/10/08 05:47:21;;;;;;;9.63;2.13;;;11.70;99.90;;;;;;5071498;28;20079;-49
2022/10/08 05:49:48;;;;;;;9.05;2.05;;;11.60;99.90;;;;;;5065329;28;20135;-48
2022/10/08 05:52:14;;;;;;;9.93;2.03;;;11.60;99.90;;;;;;5069486;28;20441;-46
2022/10/08 05:54:41;;;;;;;10.35;2.10;;;11.60;99.90;;;;;;5066581;28;20440;-45
2022/10/08 05:57:08;;;;;;;14.45;2.30;;;11.50;99.90;;;;;;5047097;28;20169;-47
2022/10/08 05:59:35;;;;;;;10.95;1.98;;;11.50;99.90;;;;;;5059497;28;20045;-50
2022/10/08 06:02:01;;;;;;;6.90;1.58;;;11.40;99.90;;;;;;5065915;28;20056;-48
2022/10/08 06:04:30;;;;;;;9.68;1.90;;;11.50;99.90;;;;;;5067818;28;20508;-48
2022/10/08 06:06:56;;;;;;;10.50;2.50;;;11.40;99.90;;;;;;5063939;28;20076;-47
2022/10/08 06:09:23;;;;;;;16.33;2.70;;;11.40;99.90;;;;;;5065230;28;20080;-45
2022/10/08 06:11:50;;;;;;;11.85;2.67;;;11.40;99.90;;;;;;5063406;28;20186;-46
2022/10/08 06:14:19;;;;;;;8.23;2.92;;;11.40;99.90;;;;;;5069188;28;20086;-49
2022/10/08 06:16:45;;;;;;;13.20;3.15;;;11.40;99.90;;;;;;5064283;28;20056;-48
2022/10/08 06:19:12;;;;;;;12.18;3.15;;;11.40;99.90;;;;;;5046888;28;20133;-48
2022/10/08 06:21:40;;;;;;;10.80;3.15;;;11.40;99.90;;;;;;5066533;28;20096;-48
2022/10/08 06:24:08;;;;;;;14.35;3.83;;;11.40;99.90;;;;;;5064193;28;20075;-49
2022/10/08 06:26:36;;;;;;;14.80;3.60;;;11.40;99.90;;;;;;5058537;28;20562;-51
2022/10/08 06:29:04;;;;;;;11.15;3.83;;;11.40;99.90;;;;;;5065861;28;20091;-44
2022/10/08 06:31:31;;;;;;;8.98;3.03;;;11.40;99.90;;;;;;5057205;28;20048;-48
2022/10/08 06:33:57;;;;;;;13.55;3.75;;;11.30;99.90;;;;;;5054347;28;20064;-46
2022/10/08 06:36:25;;;;;;;13.98;3.60;;;11.40;99.90;;;;;;5063400;28;20453;-46
2022/10/08 06:38:55;;;;;;;13.82;3.25;;;11.40;99.90;;;;;;5047678;28;20056;-47
2022/10/08 06:41:22;;;;;;;13.77;3.88;;;11.40;99.90;;;;;;5071178;28;20083;-44
2022/10/08 06:43:49;;;;;;;12.77;3.47;;;11.40;99.90;;;;;;5050493;28;20373;-50
2022/10/08 06:46:16;;;;;;;16.80;3.95;;;11.40;99.90;;;;;;5059567;28;20040;-49
2022/10/08 06:48:43;;;;;;;13.45;4.32;;;11.40;99.90;;;;;;5056478;28;20048;-42
2022/10/08 06:51:11;;;;;;;16.27;4.05;;;11.40;99.90;;;;;;5066816;28;20052;-48
2022/10/08 06:53:38;;;;;;;12.60;2.92;;;11.40;99.90;;;;;;5057901;28;20390;-48
2022/10/08 06:56:09;;;;;;;14.55;3.53;;;11.40;99.90;;;;;;5057712;28;20052;-48
2022/10/08 06:58:36;;;;;;;14.73;3.28;;;11.40;99.90;;;;;;5066548;28;20061;-45
2022/10/08 07:01:03;;;;;;;19.17;4.22;;;11.40;99.90;;;;;;5046789;28;20481;-48
2022/10/08 07:03:30;;;;;;;9.43;3.08;;;11.50;99.90;;;;;;5067005;28;20082;-44
2022/10/08 07:05:59;;;;;;;14.00;2.92;;;11.50;99.90;;;;;;5047174;28;20056;-43
2022/10/08 07:08:26;;;;;;;11.75;2.90;;;11.50;99.90;;;;;;5045014;28;20091;-45
2022/10/08 07:10:53;;;;;;;12.75;3.28;;;11.60;99.90;;;;;;5048810;28;20387;-46
2022/10/08 07:13:21;;;;;;;15.75;3.25;;;11.60;99.90;;;;;;5047665;28;20061;-48
2022/10/08 07:15:48;;;;;;;15.00;3.00;;;11.70;99.90;;;;;;5047776;28;20057;-47
2022/10/08 07:18:15;;;;;;;13.68;2.88;;;11.80;99.90;;;;;;5069266;28;20044;-48
2022/10/08 07:20:42;;;;;;;11.10;2.38;;;11.90;99.90;;;;;;5063023;28;20132;-49
2022/10/08 07:23:09;;;;;;;14.05;2.88;;;11.90;99.90;;;;;;5071116;28;20385;-49
2022/10/08 07:25:35;;;;;;;17.25;3.28;;;12.00;99.90;;;;;;5071554;28;20048;-46
2022/10/08 07:28:02;;;;;;;13.73;3.05;;;12.00;99.90;;;;;;5069345;28;20504;-51
2022/10/08 07:30:31;;;;;;;14.70;3.35;;;12.10;99.90;;;;;;5048012;28;20129;-50
2022/10/08 07:32:59;;;;;;;13.30;3.60;;;12.20;99.90;;;;;;5040233;28;20049;-51
2022/10/08 07:35:28;;;;;;;12.10;2.47;;;12.20;99.90;;;;;;5068235;28;20514;-50
2022/10/08 07:37:55;;;;;;;20.13;2.97;;;12.20;99.90;;;;;;5052156;28;20140;-51
2022/10/08 07:40:22;;;;;;;15.57;2.60;;;12.30;99.90;;;;;;5051560;28;20117;-48
2022/10/08 07:42:48;;;;;;;16.60;3.15;;;12.40;99.90;;;;;;5066509;28;20106;-49
2022/10/08 07:45:16;;;;;;;13.93;2.42;;;12.50;99.90;;;;;;5038185;28;20088;-48
2022/10/08 07:47:45;;;;;;;11.82;2.25;;;12.60;99.90;;;;;;5065034;28;20052;-49
2022/10/08 07:50:11;;;;;;;14.95;2.67;;;12.70;99.90;;;;;;5075069;28;20484;-50
2022/10/08 07:52:38;;;;;;;14.70;2.03;;;12.80;99.90;;;;;;5075059;28;20155;-45
2022/10/08 07:55:05;;;;;;;12.13;2.50;;;12.90;99.90;;;;;;5075184;28;20045;-47
2022/10/08 07:57:32;;;;;;;16.67;2.47;;;13.00;99.90;;;;;;5072575;28;20114;-50
2022/10/08 07:59:59;;;;;;;15.18;2.58;;;13.20;99.90;;;;;;5054636;28;20135;-51
2022/10/08 08:02:26;;;;;;;15.75;2.40;;;13.30;99.90;;;;;;5051473;28;20131;-49
2022/10/08 08:04:57;;;;;;;13.10;2.30;;;13.30;99.90;;;;;;5057391;28;20140;-50
2022/10/08 08:07:23;;;;;;;14.85;2.75;;;13.50;99.90;;;;;;5057068;28;20072;-49
2022/10/08 08:09:50;;;;;;;12.88;2.55;;;13.50;99.90;;;;;;5075204;28;20048;-46
2022/10/08 08:12:17;;;;;;;17.27;3.03;;;13.60;99.90;;;;;;5062968;28;20135;-48
2022/10/08 08:14:44;;;;;;;14.48;3.15;;;13.70;99.90;;;;;;5053273;28;20143;-50
2022/10/08 08:17:10;;;;;;;15.77;2.75;;;13.90;99.90;;;;;;5072638;28;20048;-47
2022/10/08 08:19:39;;;;;;;15.38;2.72;;;13.90;99.90;;;;;;5073715;28;20091;-47
2022/10/08 08:22:07;;;;;;;13.88;3.22;;;14.00;99.90;;;;;;5073787;28;20540;-47
2022/10/08 08:24:34;;;;;;;11.23;2.95;;;14.10;99.90;;;;;;5074561;28;20125;-46
2022/10/08 08:27:00;;;;;;;17.35;2.40;;;14.10;99.90;;;;;;5065561;28;20087;-44
2022/10/08 08:29:27;;;;;;;15.38;3.80;;;14.20;99.90;;;;;;5057348;28;20056;-46
2022/10/08 08:31:54;;;;;;;15.43;2.80;;;14.30;99.90;;;;;;5068492;28;20044;-43
2022/10/08 08:34:22;;;;;;;12.95;2.65;;;14.40;99.90;;;;;;5055802;28;20056;-48
2022/10/08 08:36:49;;;;;;;13.10;3.30;;;14.50;99.90;;;;;;5069990;28;20539;-44
2022/10/08 08:39:19;;;;;;;11.70;2.85;;;14.60;99.90;;;;;;5072865;28;20102;-46
2022/10/08 08:41:54;;;;;;;12.23;2.45;;;14.70;99.90;;;;;;5073600;28;20064;-46
2022/10/08 08:44:22;;;;;;;10.40;2.00;;;14.70;99.90;;;;;;5049924;28;20131;-47
2022/10/08 08:46:51;;;;;;;10.90;2.50;;;14.80;99.90;;;;;;5072377;28;20083;-45
2022/10/08 08:49:21;;;;;;;15.98;2.33;;;14.80;99.90;;;;;;5073492;28;20388;-44
2022/10/08 08:51:47;;;;;;;12.50;1.52;;;14.90;99.90;;;;;;5050616;28;20087;-44
2022/10/08 08:54:14;;;;;;;12.43;1.75;;;14.90;99.90;;;;;;5070785;28;20397;-46
2022/10/08 08:56:43;;;;;;;18.08;1.80;;;15.00;99.90;;;;;;5072590;28;20131;-46
2022/10/08 08:59:20;;;;;;;12.57;1.85;;;15.10;99.90;;;;;;5058669;28;20045;-44
2022/10/08 09:01:46;;;;;;;11.27;1.75;;;15.20;99.90;;;;;;5068152;28;20076;-46
2022/10/08 09:04:15;;;;;;;7.20;1.40;;;15.30;99.90;;;;;;5055248;28;20056;-46
2022/10/08 09:06:42;;;;;;;9.90;1.50;;;15.30;99.90;;;;;;5070971;28;20459;-47
2022/10/08 09:09:15;;;;;;;8.88;1.50;;;15.40;99.90;;;;;;5072590;28;20045;-45
2022/10/08 09:11:44;;;;;;;11.98;1.65;;;15.50;99.90;;;;;;5067082;28;20081;-47
2022/10/08 09:14:21;;;;;;;11.25;1.83;;;15.50;99.90;;;;;;5060844;28;20134;-45
2022/10/08 09:16:47;;;;;;;7.47;1.52;;;15.60;99.90;;;;;;5041497;28;20045;-46
2022/10/08 09:19:14;;;;;;;10.63;1.67;;;15.60;99.90;;;;;;5055711;28;20048;-46
2022/10/08 09:21:41;;;;;;;12.07;1.85;;;15.60;99.90;;;;;;5072169;28;20489;-46
2022/10/08 09:24:08;;;;;;;10.73;1.65;;;15.50;99.90;;;;;;5070167;28;20102;-43
2022/10/08 09:26:35;;;;;;;8.60;1.35;;;15.40;99.90;;;;;;5064564;28;20076;-43
2022/10/08 09:29:03;;;;;;;11.07;1.50;;;15.50;99.90;;;;;;5046188;28;20139;-45
2022/10/08 09:31:31;;;;;;;10.13;1.52;;;15.50;99.90;;;;;;5062629;28;20045;-48
2022/10/08 09:34:03;;;;;;;10.60;1.40;;;15.60;99.90;;;;;;5043815;28;20135;-45
2022/10/08 09:36:34;;;;;;;10.20;1.80;;;15.70;99.90;;;;;;5066620;28;20055;-45
2022/10/08 09:39:02;;;;;;;8.00;1.65;;;15.90;99.90;;;;;;5048443;28;20055;-45
2022/10/08 09:41:29;;;;;;;9.30;1.40;;;15.90;99.90;;;;;;5067570;28;20051;-45
2022/10/08 09:44:12;;;;;;;8.23;1.80;;;15.80;99.90;;;;;;5064080;28;20051;-44
2022/10/08 09:46:38;;;;;;;8.75;1.52;;;15.90;99.90;;;;;;5046975;28;20091;-46
2022/10/08 09:49:21;;;;;;;14.65;2.03;;;16.00;99.90;;;;;;5066224;28;20059;-42
2022/10/08 09:51:48;;;;;;;10.68;1.77;;;16.10;99.90;;;;;;5066956;28;20044;-40
2022/10/08 09:54:21;;;;;;;3.97;1.10;;;16.30;99.90;;;;;;5066586;28;20139;-41
2022/10/08 09:56:51;;;;;;;17.77;2.00;;;16.40;99.90;;;;;;5067806;28;20571;-41
2022/10/08 09:59:20;;;;;;;8.60;1.30;;;16.40;99.90;;;;;;5066789;28;20067;-43
2022/10/08 10:01:47;;;;;;;8.45;1.40;;;16.40;99.90;;;;;;5048788;28;20518;-55
2022/10/08 10:04:18;;;;;;;11.52;1.60;;;16.20;99.90;;;;;;5066218;28;20263;-56
2022/10/08 10:06:47;;;;;;;13.45;1.90;;;16.20;99.90;;;;;;5051251;28;20092;-55
2022/10/08 10:09:22;;;;;;;12.85;1.52;;;15.90;99.90;;;;;;5063571;28;20040;-53
2022/10/08 10:11:50;;;;;;;11.10;1.70;;;15.70;99.90;;;;;;5073254;28;20084;-50
2022/10/08 10:14:23;;;;;;;6.28;1.08;;;15.40;99.90;;;;;;5073127;28;20440;-49
2022/10/08 10:16:54;;;;;;;10.05;1.30;;;15.20;99.90;;;;;;5049726;28;20531;-49
2022/10/08 10:19:22;;;;;;;7.53;1.35;;;15.10;99.90;;;;;;5067402;28;20085;-46
2022/10/08 10:21:52;;;;;;;10.02;1.50;;;15.00;99.90;;;;;;5062970;28;20655;-45
2022/10/08 10:24:47;;;;;;;10.98;1.30;;;15.10;99.90;;;;;;5064956;28;20128;-45
2022/10/08 10:27:15;;;;;;;13.10;1.70;;;15.20;99.90;;;;;;5064711;28;20052;-45
2022/10/08 10:29:52;;;;;;;12.57;1.73;;;15.30;99.90;;;;;;5045952;28;20057;-44
2022/10/08 10:32:20;;;;;;;12.95;1.65;;;15.50;99.90;;;;;;5065298;28;20080;-44
2022/10/08 10:34:50;;;;;;;11.43;1.73;;;15.60;99.90;;;;;;5068112;28;20106;-45
2022/10/08 10:37:20;;;;;;;11.02;1.60;;;15.50;99.90;;;;;;5064541;28;20121;-45
2022/10/08 10:39:51;;;;;;;9.02;1.23;;;15.50;99.90;;;;;;5046354;28;20091;-44
2022/10/08 10:42:19;;;;;;;10.02;1.80;;;15.60;99.90;;;;;;5065859;28;20495;-39
2022/10/08 10:44:52;;;;;;;14.82;2.60;;;15.60;99.90;;;;;;5045695;28;20114;-43
2022/10/08 10:47:20;;;;;;;12.43;2.00;;;15.70;99.90;;;;;;5066211;28;20080;-47
2022/10/08 10:49:46;;;;;;;12.40;2.00;;;15.90;99.90;;;;;;5067027;28;20473;-46
2022/10/08 10:52:30;;;;;;;12.32;1.95;;;16.00;99.90;;;;;;5064109;28;20715;-45
2022/10/08 10:55:06;;;;;;;9.05;1.50;;;16.10;99.90;;;;;;5053728;28;20128;-45
2022/10/08 10:57:40;;;;;;;10.23;1.23;;;16.20;99.90;;;;;;5040241;28;20366;-42
2022/10/08 11:00:09;;;;;;;5.53;1.15;;;16.10;99.90;;;;;;5063589;28;20084;-42
2022/10/08 11:02:40;;;;;;;11.10;1.30;;;15.90;99.20;;;;;;5066777;28;20102;-44
2022/10/08 11:05:10;;;;;;;10.00;1.63;;;15.70;99.00;;;;;;5041536;28;20075;-42
2022/10/08 11:07:45;;;;;;;9.68;1.92;;;15.50;98.80;;;;;;5063139;28;20640;-44
2022/10/08 11:10:20;;;;;;;10.68;1.50;;;15.50;98.50;;;;;;5061839;28;20080;-43
2022/10/08 11:12:51;;;;;;;7.63;1.33;;;15.40;98.30;;;;;;5065497;28;20446;-44
2022/10/08 11:15:22;;;;;;;8.32;1.20;;;15.40;98.20;;;;;;5071174;28;20604;-41
2022/10/08 11:17:56;;;;;;;9.38;1.30;;;15.30;97.70;;;;;;5056039;28;20048;-42
2022/10/08 11:20:42;;;;;;;8.13;1.20;;;15.20;97.60;;;;;;5050914;28;20076;-39
2022/10/08 11:23:18;;;;;;;8.30;1.23;;;15.10;97.20;;;;;;5064745;28;20145;-46
2022/10/08 11:25:47;;;;;;;12.00;1.50;;;14.90;97.10;;;;;;5055708;28;20088;-43
2022/10/08 11:28:19;;;;;;;9.05;1.55;;;14.80;97.20;;;;;;5055559;28;20048;-44
2022/10/08 11:30:52;;;;;;;9.70;1.90;;;14.70;97.30;;;;;;5061656;28;20131;-44
2022/10/08 11:33:19;;;;;;;13.15;1.60;;;14.70;97.30;;;;;;5049769;28;20450;-45
2022/10/08 11:35:49;;;;;;;9.45;1.27;;;14.80;97.30;;;;;;5048673;28;20106;-43
2022/10/08 11:38:18;;;;;;;9.30;1.48;;;15.00;97.10;;;;;;5070905;28;20076;-44
2022/10/08 11:40:47;;;;;;;8.43;1.48;;;15.20;97.00;;;;;;5057934;28;20056;-43
2022/10/08 11:43:18;;;;;;;12.85;2.15;;;15.50;96.90;;;;;;5066086;28;20052;-42
2022/10/08 11:45:45;;;;;;;7.93;1.67;;;15.70;96.60;;;;;;5066731;28;20084;-41
2022/10/08 11:48:40;;;;;;;9.65;1.58;;;15.90;96.20;;;;;;5067717;28;20040;-44
2022/10/08 11:51:31;;;;;;;5.97;1.17;;;16.10;95.40;;;;;;5003318;28;20120;-44
2022/10/08 11:54:16;;;;;;;9.82;1.42;;;16.30;94.20;;;;;;5062056;28;20055;-44
2022/10/08 11:56:45;;;;;;;8.52;1.38;;;16.30;94.00;;;;;;5054820;28;20051;-44
2022/10/08 11:59:32;;;;;;;10.63;1.80;;;16.20;93.70;;;;;;5069927;28;20505;-44
2022/10/08 12:01:59;;;;;;;7.68;1.25;;;16.00;93.40;;;;;;5064778;28;20417;-42
2022/10/08 12:04:33;;;;;;;11.07;1.73;;;15.80;94.40;;;;;;5064492;28;20131;-44
2022/10/08 12:07:18;;;;;;;9.10;1.55;;;15.60;94.60;;;;;;5066240;28;20052;-43
2022/10/08 12:10:09;;;;;;;7.03;1.35;;;15.70;94.80;;;;;;5071550;28;20048;-43
2022/10/08 12:13:24;;;;;;;8.25;1.60;;;15.80;95.00;;;;;;5046475;28;20105;-45
2022/10/08 12:15:55;;;;;;;9.13;1.85;;;16.00;94.20;;;;;;4956563;28;20129;-42
2022/10/08 12:18:30;;;;;;;10.75;1.10;;;16.10;94.30;;;;;;5054859;28;20087;-39
2022/10/08 12:21:30;;;;;;;12.50;1.98;;;16.10;94.10;;;;;;5049452;28;20090;-44
2022/10/08 12:23:59;;;;;;;6.68;1.08;;;16.20;93.90;;;;;;5049507;28;20084;-42
2022/10/08 12:26:26;;;;;;;10.55;1.90;;;16.30;93.90;;;;;;5044483;28;20532;-48
2022/10/08 12:28:53;;;;;;;7.68;1.58;;;16.40;93.70;;;;;;5050920;28;20543;-44
2022/10/08 12:31:30;;;;;;;12.55;1.55;;;16.40;93.40;;;;;;5069683;28;20584;-44
2022/10/08 12:33:58;;;;;;;7.93;1.20;;;16.40;93.60;;;;;;5047447;28;20084;-43
2022/10/08 12:36:30;;;;;;;7.57;1.33;;;16.40;93.50;;;;;;5065500;28;20332;-44
2022/10/08 12:39:00;;;;;;;11.25;1.40;;;16.50;93.30;;;;;;5046185;28;20068;-45
2022/10/08 12:41:29;;;;;;;9.80;1.77;;;16.60;93.20;;;;;;5048233;28;20094;-43
2022/10/08 12:43:58;;;;;;;6.47;1.30;;;16.70;93.30;;;;;;5059550;28;20128;-42
2022/10/08 12:46:30;;;;;;;13.65;1.58;;;16.80;93.10;;;;;;5047087;28;20072;-44
2022/10/08 12:48:59;;;;;;;9.40;1.42;;;16.90;92.80;;;;;;5073970;28;20132;-45
2022/10/08 12:51:28;;;;;;;9.75;1.50;;;17.10;92.20;;;;;;5055746;28;20098;-44